Time;durP1;ratioP1;P1;durP2;ratioP2;P2;SDS_P1;SDS_P2;PMS_P1;PMS_P2;Temp;Humidity;BMP_temperature;BMP_pressure;BME280_temperature;BME280_humidity;BME280_pressure;Samples;Min_cycle;Max_cycle;Signal;HPM_P1;HPM_P2
2023/10/19 00:01:50;;;;;;;22.67;13.40;;;8.00;99.90;;;;;;5091655;28;20036;-81
2023/10/19 00:04:36;;;;;;;20.75;13.30;;;8.00;99.90;;;;;;5073272;28;20427;-73
2023/10/19 00:07:22;;;;;;;21.33;13.40;;;8.00;99.90;;;;;;5092246;28;20052;-79
2023/10/19 00:10:09;;;;;;;21.52;13.70;;;8.00;99.90;;;;;;5074215;28;20155;-76
2023/10/19 00:13:05;;;;;;;21.95;12.52;;;8.00;99.90;;;;;;5072590;28;20059;-75
2023/10/19 00:15:54;;;;;;;22.95;14.18;;;8.00;99.90;;;;;;5071886;28;20186;-77
2023/10/19 00:18:42;;;;;;;21.67;13.20;;;8.00;99.90;;;;;;5071839;28;20067;-75
2023/10/19 00:21:29;;;;;;;22.67;13.63;;;8.00;99.90;;;;;;5072259;28;20051;-74
2023/10/19 00:24:16;;;;;;;21.30;13.30;;;8.00;99.90;;;;;;5060008;28;20129;-77
2023/10/19 00:27:19;;;;;;;23.75;14.23;;;7.90;99.90;;;;;;5074814;28;20051;-83
2023/10/19 00:30:06;;;;;;;25.40;15.32;;;8.00;99.90;;;;;;5061705;28;20055;-72
2023/10/19 00:32:53;;;;;;;23.45;15.25;;;8.00;99.90;;;;;;5075986;28;20056;-74
2023/10/19 00:35:56;;;;;;;24.95;15.27;;;8.00;99.90;;;;;;5073905;28;20055;-80
2023/10/19 00:41:34;;;;;;;26.40;15.07;;;7.90;99.90;;;;;;5072019;28;20052;-72
2023/10/19 00:44:30;;;;;;;28.48;15.98;;;7.90;99.90;;;;;;5072152;28;20067;-83
2023/10/19 00:47:23;;;;;;;29.58;15.93;;;7.90;99.90;;;;;;5060005;28;20484;-85
2023/10/19 00:50:17;;;;;;;25.60;15.32;;;7.90;99.90;;;;;;5072814;28;20063;-81
2023/10/19 00:53:08;;;;;;;26.25;15.55;;;7.90;99.90;;;;;;5072581;28;20064;-71
2023/10/19 00:55:54;;;;;;;26.63;15.48;;;7.90;99.90;;;;;;5089134;28;20450;-77
2023/10/19 00:58:41;;;;;;;30.70;16.92;;;7.90;99.90;;;;;;5058077;28;20052;-78
2023/10/19 01:01:29;;;;;;;26.42;16.05;;;7.90;99.90;;;;;;5090188;28;20102;-81
2023/10/19 01:04:22;;;;;;;27.50;16.05;;;7.90;99.90;;;;;;5090005;28;20047;-76
2023/10/19 01:07:27;;;;;;;31.88;17.00;;;7.90;99.90;;;;;;5072541;28;20102;-78
2023/10/19 01:10:23;;;;;;;27.85;16.95;;;7.90;99.90;;;;;;5072597;28;20051;-72
2023/10/19 01:13:09;;;;;;;31.85;16.65;;;7.90;99.90;;;;;;5071225;28;20135;-79
2023/10/19 01:15:55;;;;;;;31.95;17.00;;;7.90;99.90;;;;;;5058981;28;20765;-81
2023/10/19 01:18:43;;;;;;;31.40;17.75;;;7.90;99.90;;;;;;5089142;28;20130;-73
2023/10/19 01:21:37;;;;;;;32.65;19.58;;;7.90;99.90;;;;;;5058401;28;20052;-78
2023/10/19 01:24:41;;;;;;;28.17;16.30;;;7.90;99.90;;;;;;5075298;28;20465;-72
2023/10/19 01:27:28;;;;;;;29.23;17.23;;;7.90;99.90;;;;;;5064306;28;20078;-81
2023/10/19 01:30:16;;;;;;;29.05;17.17;;;7.90;99.90;;;;;;5079267;28;20048;-86
2023/10/19 01:33:08;;;;;;;26.55;17.05;;;7.90;99.90;;;;;;5065174;28;20054;-77
2023/10/19 01:36:14;;;;;;;33.10;17.50;;;7.90;99.90;;;;;;5078867;28;20048;-74
2023/10/19 01:39:09;;;;;;;29.98;17.50;;;7.90;99.90;;;;;;5079413;28;20056;-75
2023/10/19 01:41:57;;;;;;;34.03;18.98;;;7.90;99.90;;;;;;5064603;28;20052;-78
2023/10/19 01:44:43;;;;;;;34.72;20.08;;;7.90;99.90;;;;;;5078587;28;20541;-74
2023/10/19 01:47:29;;;;;;;42.40;21.10;;;7.90;99.90;;;;;;5065011;28;20055;-78
2023/10/19 01:50:19;;;;;;;35.25;20.08;;;7.90;99.90;;;;;;5077435;28;20052;-78
2023/10/19 01:53:15;;;;;;;39.97;21.52;;;7.90;99.90;;;;;;5081318;28;20040;-78
2023/10/19 01:56:01;;;;;;;;;;;7.90;99.90;;;;;;5079342;28;20404;-82
2023/10/19 01:58:47;;;;;;;45.88;20.75;;;7.90;99.90;;;;;;5066271;28;19920;-75
2023/10/19 02:01:33;;;;;;;40.83;20.55;;;7.90;99.90;;;;;;5077822;28;20060;-75
2023/10/19 02:04:21;;;;;;;45.00;22.88;;;7.90;99.90;;;;;;5078656;28;20488;-71
2023/10/19 02:07:13;;;;;;;40.05;22.02;;;7.90;99.90;;;;;;5078361;28;20416;-71
2023/10/19 02:09:59;;;;;;;37.83;21.33;;;7.90;99.90;;;;;;5077280;28;20407;-70
2023/10/19 02:12:46;;;;;;;35.55;20.33;;;7.90;99.90;;;;;;5095604;28;20847;-87
2023/10/19 02:15:34;;;;;;;30.52;18.67;;;7.90;99.90;;;;;;5063673;28;20052;-75
2023/10/19 02:18:21;;;;;;;32.83;19.40;;;7.90;99.90;;;;;;5078696;28;20059;-77
2023/10/19 02:21:07;;;;;;;30.75;18.30;;;7.90;99.90;;;;;;5077598;28;20519;-74
2023/10/19 02:23:53;;;;;;;28.85;17.98;;;7.90;99.90;;;;;;5096116;28;20059;-72
2023/10/19 02:26:41;;;;;;;27.85;17.33;;;7.90;99.90;;;;;;5078443;28;20504;-78
2023/10/19 02:29:28;;;;;;;27.85;17.33;;;7.90;99.90;;;;;;5077787;28;20597;-76
2023/10/19 02:32:17;;;;;;;31.50;19.10;;;7.90;99.90;;;;;;5063672;28;20523;-76
2023/10/19 02:35:04;;;;;;;26.08;16.88;;;7.90;99.90;;;;;;5095960;28;20466;-74
2023/10/19 02:37:50;;;;;;;32.75;18.95;;;7.90;99.90;;;;;;5075488;28;20781;-74
2023/10/19 02:40:40;;;;;;;27.52;18.15;;;7.90;99.90;;;;;;5060824;28;20450;-73
2023/10/19 02:43:26;;;;;;;26.80;16.40;;;7.90;99.90;;;;;;5093370;28;20048;-77
2023/10/19 02:46:17;;;;;;;26.75;16.50;;;7.90;99.90;;;;;;5075487;28;20408;-78
2023/10/19 02:49:11;;;;;;;25.08;15.88;;;7.90;99.90;;;;;;5075015;28;20102;-74
2023/10/19 02:52:04;;;;;;;24.45;16.25;;;7.90;99.90;;;;;;5092546;28;20048;-73
2023/10/19 02:54:50;;;;;;;26.50;15.25;;;7.90;99.90;;;;;;5074376;28;20442;-71
2023/10/19 02:57:37;;;;;;;26.15;16.25;;;7.90;99.90;;;;;;5074348;28;20051;-81
2023/10/19 03:00:30;;;;;;;25.23;15.30;;;7.90;99.90;;;;;;5092528;28;20056;-71
2023/10/19 03:03:18;;;;;;;23.52;15.32;;;7.90;99.90;;;;;;5079700;28;20055;-75
2023/10/19 03:06:06;;;;;;;22.55;13.20;;;7.90;99.90;;;;;;5073537;28;20491;-74
2023/10/19 03:08:57;;;;;;;22.23;13.90;;;7.90;99.90;;;;;;5073676;28;20044;-74
2023/10/19 03:11:44;;;;;;;21.13;13.20;;;7.90;99.90;;;;;;5091465;28;20063;-76
2023/10/19 03:14:31;;;;;;;23.10;13.77;;;7.90;99.90;;;;;;5073625;28;20430;-82
2023/10/19 03:17:18;;;;;;;22.42;13.50;;;7.90;99.90;;;;;;5074434;28;20056;-73
2023/10/19 03:20:06;;;;;;;22.48;13.93;;;7.90;99.90;;;;;;5092480;28;20058;-77
2023/10/19 03:22:52;;;;;;;23.30;14.38;;;7.90;99.90;;;;;;5073534;28;20052;-80
2023/10/19 03:26:17;;;;;;;18.48;11.77;;;7.90;99.90;;;;;;5074834;28;20051;-76
2023/10/19 03:28:56;;;;;;;21.27;13.32;;;7.90;99.90;;;;;;5074432;28;20059;-85
2023/10/19 03:31:45;;;;;;;21.17;13.32;;;7.90;99.90;;;;;;5091157;28;20048;-74
2023/10/19 03:34:32;;;;;;;19.58;11.88;;;7.90;99.90;;;;;;5073218;28;20048;-75
2023/10/19 03:37:21;;;;;;;17.85;11.50;;;7.90;99.90;;;;;;5074214;28;20052;-74
2023/10/19 03:40:11;;;;;;;19.17;12.25;;;7.90;99.90;;;;;;5074757;28;20044;-76
2023/10/19 03:42:58;;;;;;;19.23;12.02;;;7.90;99.90;;;;;;5072699;28;20095;-75
2023/10/19 03:45:52;;;;;;;16.30;10.75;;;7.90;99.90;;;;;;5073629;28;20142;-74
2023/10/19 03:48:38;;;;;;;18.23;11.43;;;7.90;99.90;;;;;;5072056;28;20122;-83
2023/10/19 03:51:39;;;;;;;17.42;11.07;;;7.90;99.90;;;;;;5073073;28;20555;-75
2023/10/19 03:54:27;;;;;;;16.52;11.13;;;7.90;99.90;;;;;;5072926;28;20067;-80
2023/10/19 03:57:22;;;;;;;19.58;11.65;;;7.90;99.90;;;;;;5073403;28;20117;-74
2023/10/19 04:00:11;;;;;;;17.77;10.98;;;7.90;99.90;;;;;;5073734;28;20055;-74
2023/10/19 04:02:58;;;;;;;20.45;11.45;;;7.90;99.90;;;;;;5073323;28;20084;-74
2023/10/19 04:05:48;;;;;;;17.77;12.02;;;7.90;99.90;;;;;;5071883;28;20060;-82
2023/10/19 04:08:37;;;;;;;19.77;12.18;;;7.90;99.90;;;;;;5071880;28;20059;-73
2023/10/19 04:11:26;;;;;;;24.90;14.35;;;7.90;99.90;;;;;;5072150;28;20067;-76
2023/10/19 04:14:15;;;;;;;22.45;13.70;;;7.90;99.90;;;;;;5072135;28;20052;-76
2023/10/19 04:17:02;;;;;;;19.15;11.82;;;7.90;99.90;;;;;;5059216;28;20067;-78
2023/10/19 04:19:51;;;;;;;17.13;10.98;;;7.90;99.90;;;;;;5091843;28;20091;-79
2023/10/19 04:22:37;;;;;;;15.63;9.05;;;7.90;99.90;;;;;;5073164;28;20044;-79
2023/10/19 04:25:25;;;;;;;16.95;10.20;;;7.90;99.90;;;;;;5075376;28;20523;-79
2023/10/19 04:28:13;;;;;;;17.67;10.57;;;7.90;99.90;;;;;;5073449;28;20088;-80
2023/10/19 04:31:06;;;;;;;16.35;10.15;;;7.90;99.90;;;;;;5073138;28;20106;-74
2023/10/19 04:33:54;;;;;;;12.63;8.80;;;7.90;99.90;;;;;;5073091;28;20610;-75
2023/10/19 04:36:40;;;;;;;12.50;8.25;;;7.90;99.90;;;;;;5091767;28;20044;-76
2023/10/19 04:39:28;;;;;;;11.38;7.88;;;8.00;99.90;;;;;;5073035;28;20044;-70
2023/10/19 04:42:14;;;;;;;14.30;8.00;;;7.90;99.90;;;;;;5074024;28;20056;-72
2023/10/19 04:45:01;;;;;;;11.00;7.25;;;8.00;99.90;;;;;;5091288;28;20055;-80
2023/10/19 04:47:52;;;;;;;12.07;8.10;;;8.00;99.90;;;;;;5073431;28;20168;-72
2023/10/19 04:50:39;;;;;;;11.18;6.93;;;8.00;99.90;;;;;;5073022;28;20059;-78
2023/10/19 04:53:25;;;;;;;12.52;7.38;;;8.00;99.90;;;;;;5073116;28;20056;-74
2023/10/19 04:56:12;;;;;;;10.48;6.72;;;8.00;99.90;;;;;;5076885;28;20048;-71
2023/10/19 04:58:58;;;;;;;9.73;6.85;;;8.00;99.90;;;;;;5098181;28;20056;-75
2023/10/19 05:01:44;;;;;;;11.05;6.82;;;8.00;99.90;;;;;;5099688;28;20087;-74
2023/10/19 05:04:31;;;;;;;13.55;8.68;;;8.00;99.90;;;;;;5099426;28;20063;-73
2023/10/19 05:07:16;;;;;;;12.77;7.78;;;8.00;99.90;;;;;;5080266;28;20048;-73
2023/10/19 05:10:05;;;;;;;10.13;6.35;;;8.00;99.90;;;;;;5076718;28;20114;-71
2023/10/19 05:12:51;;;;;;;11.57;6.97;;;8.00;99.90;;;;;;5059945;28;20140;-71
2023/10/19 05:15:38;;;;;;;11.20;6.43;;;8.00;99.90;;;;;;5058566;28;20075;-72
2023/10/19 05:18:25;;;;;;;9.80;6.78;;;8.00;99.90;;;;;;5058669;28;20044;-72
2023/10/19 05:21:12;;;;;;;10.60;7.32;;;8.00;99.90;;;;;;5072137;28;20110;-72
2023/10/19 05:24:00;;;;;;;10.18;6.85;;;8.00;99.90;;;;;;5075370;28;20052;-73
2023/10/19 05:26:46;;;;;;;11.25;6.85;;;8.00;99.90;;;;;;5072610;28;20052;-73
2023/10/19 05:29:35;;;;;;;10.60;6.68;;;8.00;99.90;;;;;;5076285;28;20094;-73
2023/10/19 05:32:21;;;;;;;8.75;5.70;;;8.00;99.90;;;;;;5072564;28;20114;-73
2023/10/19 05:35:08;;;;;;;10.90;6.65;;;8.10;99.90;;;;;;5072938;28;20097;-71
2023/10/19 05:37:56;;;;;;;11.20;5.85;;;8.00;99.90;;;;;;5072212;28;20431;-71
2023/10/19 05:40:43;;;;;;;9.68;5.88;;;8.10;99.90;;;;;;5072282;28;20047;-78
2023/10/19 05:43:30;;;;;;;10.10;5.50;;;8.00;99.90;;;;;;5071842;28;20048;-72
2023/10/19 05:46:19;;;;;;;11.15;6.43;;;8.10;99.90;;;;;;5071621;28;20062;-77
2023/10/19 05:49:06;;;;;;;11.20;5.70;;;8.00;99.90;;;;;;5072212;28;20143;-75
2023/10/19 05:51:52;;;;;;;7.05;4.47;;;8.10;99.90;;;;;;5071460;28;20108;-81
2023/10/19 05:54:38;;;;;;;10.13;6.22;;;8.10;99.90;;;;;;5071839;28;20640;-82
2023/10/19 05:57:24;;;;;;;10.27;5.50;;;8.10;99.90;;;;;;5070752;28;20488;-82
2023/10/19 06:00:15;;;;;;;9.55;5.28;;;8.10;99.90;;;;;;5088980;28;20048;-80
2023/10/19 06:03:01;;;;;;;7.65;4.65;;;8.10;99.90;;;;;;5089771;28;20051;-73
2023/10/19 06:05:47;;;;;;;7.90;5.03;;;8.10;99.90;;;;;;5071523;28;20060;-75
2023/10/19 06:08:33;;;;;;;9.82;4.70;;;8.10;99.90;;;;;;5072460;28;20145;-77
2023/10/19 06:11:23;;;;;;;6.97;4.53;;;8.10;99.90;;;;;;5090507;28;20044;-80
2023/10/19 06:14:09;;;;;;;6.95;4.13;;;8.10;99.90;;;;;;5093973;28;20117;-79
2023/10/19 06:16:56;;;;;;;8.10;4.65;;;8.10;99.90;;;;;;5076205;28;20052;-76
2023/10/19 06:19:42;;;;;;;8.00;4.38;;;8.10;99.90;;;;;;5061867;28;20079;-78
2023/10/19 06:22:28;;;;;;;7.55;4.63;;;8.10;99.90;;;;;;5075041;28;20484;-76
2023/10/19 06:25:17;;;;;;;6.72;4.25;;;8.10;99.90;;;;;;5061772;28;20102;-79
2023/10/19 06:28:04;;;;;;;6.55;3.97;;;8.20;99.90;;;;;;5075395;28;20056;-71
2023/10/19 06:30:50;;;;;;;6.00;4.13;;;8.10;99.90;;;;;;5074982;28;20088;-78
2023/10/19 06:33:41;;;;;;;6.68;3.88;;;8.20;99.90;;;;;;5075410;28;20055;-77
2023/10/19 06:36:31;;;;;;;6.53;3.05;;;8.10;99.90;;;;;;5061883;28;20395;-78
2023/10/19 06:39:20;;;;;;;6.13;3.13;;;8.20;99.90;;;;;;5093575;28;20051;-75
2023/10/19 06:42:13;;;;;;;6.63;3.85;;;8.20;99.90;;;;;;5093379;28;20083;-74
2023/10/19 06:44:59;;;;;;;6.50;3.55;;;8.20;99.90;;;;;;5075055;28;20384;-79
2023/10/19 06:47:49;;;;;;;5.65;3.42;;;8.10;99.90;;;;;;5091903;28;20167;-73
2023/10/19 06:50:36;;;;;;;6.47;3.10;;;8.20;99.90;;;;;;5074240;28;20052;-73
2023/10/19 06:53:22;;;;;;;6.53;3.88;;;8.20;99.90;;;;;;5074201;28;20052;-74
2023/10/19 06:56:08;;;;;;;7.68;3.75;;;8.20;99.90;;;;;;5073957;28;20048;-80
2023/10/19 06:58:54;;;;;;;5.80;3.45;;;8.20;99.90;;;;;;5074085;28;20056;-73
2023/10/19 07:01:40;;;;;;;6.60;4.22;;;8.20;99.90;;;;;;5074081;28;20059;-72
2023/10/19 07:04:28;;;;;;;6.50;4.15;;;8.20;99.90;;;;;;5073918;28;20052;-73
2023/10/19 07:07:14;;;;;;;5.22;3.45;;;8.20;99.90;;;;;;5060300;28;20048;-75
2023/10/19 07:10:00;;;;;;;5.07;3.28;;;8.20;99.90;;;;;;5074149;28;20837;-72
2023/10/19 07:12:50;;;;;;;6.50;3.90;;;8.20;99.90;;;;;;5077740;28;20468;-78
2023/10/19 07:15:36;;;;;;;6.03;3.75;;;8.20;99.90;;;;;;5091588;28;20056;-78
2023/10/19 07:18:23;;;;;;;7.38;4.00;;;8.20;99.90;;;;;;5060301;28;20131;-72
2023/10/19 07:21:09;;;;;;;7.20;4.32;;;8.20;99.90;;;;;;5091998;28;20043;-72
2023/10/19 07:23:56;;;;;;;6.20;3.85;;;8.20;99.90;;;;;;5074413;28;20553;-73
2023/10/19 07:26:53;;;;;;;6.38;4.15;;;8.30;99.90;;;;;;5074501;28;20043;-73
2023/10/19 07:29:42;;;;;;;6.43;4.30;;;8.30;99.90;;;;;;5074830;28;20052;-72
2023/10/19 07:32:28;;;;;;;5.20;3.55;;;8.30;99.90;;;;;;5092578;28;20110;-77
2023/10/19 07:35:15;;;;;;;6.50;3.60;;;8.30;99.90;;;;;;5074835;28;20054;-75
2023/10/19 07:38:03;;;;;;;5.85;3.65;;;8.30;99.90;;;;;;5073209;28;20507;-73
2023/10/19 07:40:52;;;;;;;8.13;4.20;;;8.30;99.90;;;;;;5074073;28;20056;-72
2023/10/19 07:43:39;;;;;;;5.60;3.65;;;8.30;99.90;;;;;;5073651;28;20043;-75
2023/10/19 07:46:25;;;;;;;6.93;4.55;;;8.30;99.90;;;;;;5073326;28;20463;-75
2023/10/19 07:49:14;;;;;;;5.47;3.85;;;8.30;99.90;;;;;;5092113;28;20055;-74
2023/10/19 07:52:00;;;;;;;7.18;4.15;;;8.30;99.90;;;;;;5091442;28;20122;-79
2023/10/19 07:54:46;;;;;;;6.18;3.97;;;8.30;99.90;;;;;;5091882;28;20140;-76
2023/10/19 07:57:34;;;;;;;5.60;3.63;;;8.30;99.90;;;;;;5073759;28;20458;-72
2023/10/19 08:00:21;;;;;;;4.80;3.05;;;8.40;99.90;;;;;;5091706;28;20044;-72
2023/10/19 08:03:08;;;;;;;5.32;3.60;;;8.40;99.90;;;;;;5059896;28;20059;-72
2023/10/19 08:05:54;;;;;;;5.20;3.42;;;8.30;99.90;;;;;;5073297;28;20385;-72
2023/10/19 08:08:41;;;;;;;6.38;3.50;;;8.40;99.90;;;;;;5059594;28;20094;-72
2023/10/19 08:11:28;;;;;;;6.32;3.83;;;8.40;99.90;;;;;;5073458;28;20044;-72
2023/10/19 08:14:14;;;;;;;5.65;3.75;;;8.40;99.90;;;;;;5059548;28;20060;-75
2023/10/19 08:17:00;;;;;;;4.82;3.10;;;8.40;99.90;;;;;;5073137;28;20067;-71
2023/10/19 08:19:46;;;;;;;7.45;4.20;;;8.40;99.90;;;;;;5058970;28;20054;-73
2023/10/19 08:22:32;;;;;;;4.97;3.22;;;8.40;99.90;;;;;;5073088;28;20060;-80
2023/10/19 08:25:20;;;;;;;9.85;3.58;;;8.40;99.90;;;;;;5072791;28;20051;-72
2023/10/19 08:28:06;;;;;;;5.82;3.60;;;8.40;99.90;;;;;;5071577;28;20109;-74
2023/10/19 08:31:00;;;;;;;5.97;3.70;;;8.40;99.90;;;;;;5072472;28;20075;-72
2023/10/19 08:33:46;;;;;;;4.57;3.00;;;8.40;99.90;;;;;;5072998;28;20059;-73
2023/10/19 08:36:32;;;;;;;5.88;3.72;;;8.40;99.90;;;;;;5090379;28;20490;-72
2023/10/19 08:39:18;;;;;;;5.90;3.72;;;8.40;99.90;;;;;;5089813;28;20052;-70
2023/10/19 08:42:04;;;;;;;7.28;3.60;;;8.40;99.90;;;;;;5072699;28;20048;-73
2023/10/19 08:44:51;;;;;;;5.05;3.13;;;8.40;99.90;;;;;;5090476;28;20058;-72
2023/10/19 08:47:37;;;;;;;5.88;3.92;;;8.40;99.90;;;;;;5090991;28;20052;-71
2023/10/19 08:50:25;;;;;;;6.13;3.95;;;8.40;99.90;;;;;;5072271;28;20082;-71
2023/10/19 08:53:19;;;;;;;6.93;4.85;;;8.50;99.90;;;;;;5072825;28;20052;-79
2023/10/19 08:56:07;;;;;;;6.38;4.28;;;8.50;99.90;;;;;;5059813;28;20419;-73
2023/10/19 08:58:53;;;;;;;6.57;4.47;;;8.50;99.90;;;;;;5090702;28;20519;-76
2023/10/19 09:01:39;;;;;;;6.03;4.30;;;8.50;99.90;;;;;;5072972;28;20407;-73
2023/10/19 09:04:25;;;;;;;6.72;4.60;;;8.50;99.90;;;;;;5072623;28;20099;-72
2023/10/19 09:07:11;;;;;;;5.78;3.78;;;8.60;99.90;;;;;;5072864;28;20558;-77
2023/10/19 09:09:58;;;;;;;6.60;4.60;;;8.60;99.90;;;;;;5090672;28;20098;-83
2023/10/19 09:12:43;;;;;;;6.55;4.32;;;8.60;99.90;;;;;;5072108;28;20052;-72
2023/10/19 09:15:32;;;;;;;6.38;4.38;;;8.60;99.90;;;;;;5089399;28;20134;-74
2023/10/19 09:18:20;;;;;;;5.20;3.65;;;8.70;99.90;;;;;;5057417;28;20182;-72
2023/10/19 09:21:11;;;;;;;6.18;4.25;;;8.70;99.90;;;;;;5071798;28;20052;-73
2023/10/19 09:23:57;;;;;;;5.97;4.38;;;8.70;99.90;;;;;;5071634;28;20495;-73
2023/10/19 09:26:43;;;;;;;6.32;4.20;;;8.60;99.90;;;;;;5071786;28;20066;-72
2023/10/19 09:29:31;;;;;;;7.15;5.10;;;8.70;99.90;;;;;;5072317;28;20114;-72
2023/10/19 09:32:17;;;;;;;6.07;4.45;;;8.70;99.90;;;;;;5071904;28;20056;-73
2023/10/19 09:35:04;;;;;;;7.10;4.70;;;8.70;99.90;;;;;;5058396;28;20474;-72
2023/10/19 09:37:53;;;;;;;7.82;5.28;;;8.80;99.90;;;;;;5072271;28;20054;-79
2023/10/19 09:40:40;;;;;;;6.72;3.88;;;8.80;99.90;;;;;;5076165;28;20419;-73
2023/10/19 09:43:42;;;;;;;8.45;4.35;;;8.80;99.90;;;;;;5071254;28;20082;-73
2023/10/19 09:46:32;;;;;;;6.70;4.53;;;8.80;99.90;;;;;;5073288;28;20495;-77
2023/10/19 09:49:19;;;;;;;9.43;5.10;;;8.80;99.90;;;;;;5076057;28;20138;-74
2023/10/19 09:52:07;;;;;;;6.57;4.63;;;8.80;99.90;;;;;;5075003;28;20139;-74
2023/10/19 09:55:00;;;;;;;7.05;5.05;;;8.80;99.90;;;;;;5076401;28;20048;-78
2023/10/19 09:58:02;;;;;;;8.60;4.90;;;8.80;99.90;;;;;;5078160;28;20059;-73
2023/10/19 10:00:51;;;;;;;6.72;4.90;;;8.80;99.90;;;;;;5076763;28;20069;-75
2023/10/19 10:03:45;;;;;;;7.03;4.90;;;8.80;99.90;;;;;;5076478;28;20044;-74
2023/10/19 10:06:50;;;;;;;9.02;5.65;;;8.80;99.90;;;;;;5093991;28;20056;-79
2023/10/19 10:09:44;;;;;;;7.82;5.43;;;8.80;99.90;;;;;;5075521;28;20052;-77
2023/10/19 10:12:33;;;;;;;6.80;4.85;;;8.80;99.90;;;;;;5075016;28;20048;-73
2023/10/19 10:15:40;;;;;;;8.98;5.47;;;8.80;99.90;;;;;;5062254;28;20056;-73
2023/10/19 10:18:30;;;;;;;7.47;5.47;;;8.90;99.90;;;;;;5075388;28;20135;-73
2023/10/19 10:21:20;;;;;;;8.23;5.55;;;8.90;99.90;;;;;;5074138;28;20090;-73
2023/10/19 10:24:06;;;;;;;10.45;5.95;;;8.90;99.90;;;;;;5075218;28;20052;-75
2023/10/19 10:27:03;;;;;;;9.30;6.60;;;9.00;99.90;;;;;;5075301;28;20052;-73
2023/10/19 10:30:01;;;;;;;11.48;7.40;;;9.00;99.90;;;;;;5092981;28;20056;-75
2023/10/19 10:32:54;;;;;;;10.75;7.85;;;9.00;99.90;;;;;;5075380;28;20055;-77
2023/10/19 10:35:40;;;;;;;12.63;8.98;;;9.00;99.90;;;;;;5075337;28;20052;-73
2023/10/19 10:38:35;;;;;;;12.68;8.73;;;9.00;99.90;;;;;;5074511;28;20139;-77
2023/10/19 10:41:28;;;;;;;13.65;10.23;;;9.00;99.90;;;;;;5074186;28;20512;-80
2023/10/19 10:44:14;;;;;;;14.57;10.50;;;9.10;99.90;;;;;;5074793;28;20052;-73
2023/10/19 10:47:00;;;;;;;12.63;9.50;;;9.10;99.90;;;;;;5061733;28;20052;-74
2023/10/19 10:49:52;;;;;;;15.25;9.05;;;9.10;99.90;;;;;;5074657;28;20060;-73
2023/10/19 10:52:39;;;;;;;11.63;8.27;;;9.10;99.90;;;;;;5073967;28;20109;-73
2023/10/19 10:55:25;;;;;;;12.25;7.30;;;9.10;99.90;;;;;;5074850;28;20052;-72
2023/10/19 10:58:16;;;;;;;8.32;5.70;;;9.10;99.90;;;;;;5060456;28;20052;-78
2023/10/19 11:01:02;;;;;;;8.80;5.50;;;9.20;99.90;;;;;;5092931;28;20055;-72
2023/10/19 11:03:49;;;;;;;8.55;5.43;;;9.10;99.90;;;;;;5073898;28;20051;-85
2023/10/19 11:06:49;;;;;;;10.55;6.30;;;9.10;99.90;;;;;;5074705;28;20083;-72
2023/10/19 11:09:44;;;;;;;9.20;4.78;;;9.20;99.90;;;;;;5074391;28;20483;-74
2023/10/19 11:12:30;;;;;;;7.80;4.85;;;9.10;99.90;;;;;;5060738;28;20147;-72
2023/10/19 11:15:21;;;;;;;9.55;4.55;;;9.20;99.90;;;;;;5074793;28;20048;-72
2023/10/19 11:18:07;;;;;;;7.05;4.68;;;9.20;99.90;;;;;;5058847;28;20098;-74
2023/10/19 11:20:59;;;;;;;8.63;4.88;;;9.20;99.90;;;;;;5074570;28;20056;-74
2023/10/19 11:23:52;;;;;;;8.73;5.07;;;9.20;99.90;;;;;;5074562;28;20056;-77
2023/10/19 11:26:40;;;;;;;9.50;5.90;;;9.20;99.90;;;;;;5074194;28;20139;-77
2023/10/19 11:29:26;;;;;;;11.05;7.97;;;9.20;99.90;;;;;;5074329;28;20109;-73
2023/10/19 11:32:12;;;;;;;16.58;9.82;;;9.20;99.90;;;;;;5091996;28;20040;-72
2023/10/19 11:34:59;;;;;;;14.75;9.13;;;9.20;99.90;;;;;;5073650;28;20557;-74
2023/10/19 11:37:49;;;;;;;18.27;9.07;;;9.20;99.90;;;;;;5091990;28;20050;-75
2023/10/19 11:40:35;;;;;;;12.55;7.25;;;9.30;99.90;;;;;;5074023;28;20056;-81
2023/10/19 11:43:21;;;;;;;15.88;7.65;;;9.30;99.90;;;;;;5091041;28;20143;-72
2023/10/19 11:46:08;;;;;;;13.00;6.57;;;9.20;99.90;;;;;;5091085;28;20087;-71
2023/10/19 11:48:54;;;;;;;11.80;4.80;;;9.30;99.90;;;;;;5073274;28;20094;-78
2023/10/19 11:51:41;;;;;;;9.20;4.97;;;9.20;99.90;;;;;;5072482;28;20074;-83
2023/10/19 11:54:27;;;;;;;8.10;4.45;;;9.30;99.90;;;;;;5074238;28;20099;-75
2023/10/19 11:57:13;;;;;;;8.82;4.00;;;9.20;99.90;;;;;;5092558;28;20050;-77
2023/10/19 11:59:59;;;;;;;8.35;4.38;;;9.20;99.90;;;;;;5073817;28;20412;-72
2023/10/19 12:02:45;;;;;;;9.00;4.28;;;9.20;99.90;;;;;;5072057;28;20146;-72
2023/10/19 12:05:31;;;;;;;8.70;3.60;;;9.20;99.90;;;;;;5073436;28;20052;-75
2023/10/19 12:08:17;;;;;;;7.25;3.78;;;9.20;99.90;;;;;;5090761;28;20044;-76
2023/10/19 12:11:12;;;;;;;8.93;3.92;;;9.20;99.90;;;;;;5072717;28;20097;-73
2023/10/19 12:13:59;;;;;;;9.82;4.15;;;9.20;99.90;;;;;;5091688;28;20055;-73
2023/10/19 12:16:45;;;;;;;9.85;4.95;;;9.20;99.90;;;;;;5072918;28;20048;-74
2023/10/19 12:19:32;;;;;;;7.63;4.35;;;9.20;99.90;;;;;;5072584;28;20048;-74
2023/10/19 12:22:17;;;;;;;11.73;4.10;;;9.20;99.90;;;;;;5073411;28;20052;-72
2023/10/19 12:25:05;;;;;;;7.13;3.50;;;9.20;99.90;;;;;;5073176;28;20140;-72
2023/10/19 12:27:51;;;;;;;7.43;3.22;;;9.20;99.90;;;;;;5091212;28;20527;-73
2023/10/19 12:30:38;;;;;;;9.45;3.53;;;9.20;99.90;;;;;;5073030;28;20101;-72
2023/10/19 12:33:26;;;;;;;11.15;3.45;;;9.30;99.90;;;;;;5072957;28;20842;-72
2023/10/19 12:39:35;;;;;;;8.13;3.47;;;9.20;99.90;;;;;;5072556;28;20135;-73
2023/10/19 12:42:22;;;;;;;7.70;3.97;;;9.20;99.90;;;;;;5073120;28;20538;-72
2023/10/19 12:45:11;;;;;;;5.57;3.20;;;9.20;99.90;;;;;;5072579;28;20052;-76
2023/10/19 12:47:57;;;;;;;7.55;3.15;;;9.20;99.90;;;;;;5073066;28;20052;-73
2023/10/19 12:50:43;;;;;;;6.70;3.75;;;9.20;99.90;;;;;;5059528;28;20137;-74
2023/10/19 12:53:29;;;;;;;6.63;3.78;;;9.20;99.90;;;;;;5073457;28;20048;-78
2023/10/19 12:56:16;;;;;;;6.50;3.40;;;9.20;99.90;;;;;;5073469;28;20062;-76
2023/10/19 12:59:04;;;;;;;9.65;4.15;;;9.20;99.90;;;;;;5090770;28;20051;-74
2023/10/19 13:01:54;;;;;;;12.68;3.88;;;9.10;99.90;;;;;;5090765;28;20044;-73
2023/10/19 13:04:42;;;;;;;5.53;3.15;;;9.10;99.90;;;;;;5059642;28;20577;-77
2023/10/19 13:07:28;;;;;;;7.50;3.40;;;9.10;99.90;;;;;;5072737;28;20597;-73
2023/10/19 13:10:14;;;;;;;6.45;3.28;;;9.10;99.90;;;;;;5073077;28;20183;-73
2023/10/19 13:13:05;;;;;;;6.32;3.40;;;9.10;99.90;;;;;;5072452;28;20499;-73
2023/10/19 13:15:52;;;;;;;6.97;3.53;;;9.10;99.90;;;;;;5071814;28;20142;-80
2023/10/19 13:18:40;;;;;;;7.70;3.45;;;9.10;99.90;;;;;;5071976;28;20058;-77
2023/10/19 13:21:32;;;;;;;9.90;3.72;;;9.20;99.90;;;;;;5089820;28;20055;-75
2023/10/19 13:24:22;;;;;;;7.72;3.03;;;9.20;99.90;;;;;;5072055;28;20131;-73
2023/10/19 13:27:08;;;;;;;6.20;3.53;;;9.20;99.90;;;;;;5090255;28;20483;-76
2023/10/19 13:29:57;;;;;;;4.68;2.50;;;9.20;99.90;;;;;;5072947;28;20058;-73
2023/10/19 13:32:43;;;;;;;9.27;4.70;;;9.30;99.90;;;;;;5071855;28;20059;-75
2023/10/19 13:35:30;;;;;;;7.47;4.15;;;9.30;99.90;;;;;;5072244;28;20056;-77
2023/10/19 13:38:19;;;;;;;13.75;5.95;;;9.40;99.90;;;;;;5072264;28;20056;-72
2023/10/19 13:41:09;;;;;;;10.15;5.68;;;9.30;99.90;;;;;;5072265;28;20142;-73
2023/10/19 13:43:55;;;;;;;10.35;5.28;;;9.30;99.90;;;;;;5072055;28;20106;-74
2023/10/19 13:46:41;;;;;;;11.85;5.32;;;9.30;99.90;;;;;;5072765;28;20145;-79
2023/10/19 13:49:27;;;;;;;11.48;5.35;;;9.30;99.90;;;;;;5072523;28;20087;-75
2023/10/19 13:52:15;;;;;;;9.02;4.93;;;9.20;99.90;;;;;;5071297;28;20109;-72
2023/10/19 13:55:01;;;;;;;11.73;5.50;;;9.20;99.90;;;;;;5072348;28;20048;-72
2023/10/19 13:57:49;;;;;;;10.57;5.03;;;9.20;99.90;;;;;;5072155;28;20539;-73
2023/10/19 14:03:25;;;;;;;12.20;5.45;;;9.20;99.90;;;;;;5090007;28;20040;-72
2023/10/19 14:06:13;;;;;;;12.93;5.85;;;9.20;99.90;;;;;;5058636;28;20055;-74
2023/10/19 14:08:59;;;;;;;9.57;5.85;;;9.10;99.90;;;;;;5071179;28;20059;-77
2023/10/19 14:11:46;;;;;;;12.63;5.38;;;9.10;99.90;;;;;;5072462;28;20495;-73
2023/10/19 14:14:32;;;;;;;11.23;5.15;;;9.10;99.90;;;;;;5058584;28;20403;-72
2023/10/19 14:17:18;;;;;;;10.38;5.53;;;9.10;99.90;;;;;;5071507;28;20052;-75
2023/10/19 14:20:05;;;;;;;11.18;5.80;;;9.10;99.90;;;;;;5059019;28;20131;-74
2023/10/19 14:22:55;;;;;;;12.73;6.43;;;9.10;99.90;;;;;;5070905;28;20136;-79
2023/10/19 14:25:42;;;;;;;12.38;5.80;;;9.10;99.90;;;;;;5070260;28;20058;-73
2023/10/19 14:28:29;;;;;;;12.50;7.32;;;9.10;99.90;;;;;;5072372;28;20086;-72
2023/10/19 14:31:16;;;;;;;13.93;7.00;;;9.10;99.90;;;;;;5071989;28;20105;-73
2023/10/19 14:34:03;;;;;;;12.23;6.75;;;9.00;99.90;;;;;;5072499;28;20109;-73
2023/10/19 14:36:49;;;;;;;14.07;6.65;;;9.00;99.90;;;;;;5075111;28;20058;-74
2023/10/19 14:39:35;;;;;;;14.45;7.07;;;9.00;99.90;;;;;;5075196;28;20052;-72
2023/10/19 14:42:21;;;;;;;13.10;6.05;;;9.00;99.90;;;;;;5093952;28;20088;-73
2023/10/19 14:45:13;;;;;;;15.52;8.00;;;9.00;99.90;;;;;;5061019;28;20515;-79
2023/10/19 14:48:03;;;;;;;15.95;7.32;;;9.00;99.90;;;;;;5092760;28;20569;-73